createdAt,value
2019-04-26T00:01:34.141Z,3.40
2019-04-26T00:04:02.696Z,3.20
2019-04-26T00:06:30.831Z,3.90
2019-04-26T00:09:03.780Z,3.00
2019-04-26T00:11:42.902Z,2.90
2019-04-26T00:14:12.849Z,2.97
2019-04-26T00:16:54.819Z,3.20
2019-04-26T00:19:23.378Z,3.07
2019-04-26T00:21:51.794Z,2.90
2019-04-26T00:24:21.454Z,3.23
2019-04-26T00:26:49.951Z,2.83
2019-04-26T00:29:18.927Z,2.77
2019-04-26T00:31:47.284Z,2.90
2019-04-26T00:34:15.451Z,2.90
2019-04-26T00:36:43.708Z,3.07
2019-04-26T00:39:12.928Z,2.73
2019-04-26T00:41:41.907Z,2.70
2019-04-26T00:44:10.518Z,2.40
2019-04-26T00:46:40.220Z,3.10
2019-04-26T00:49:10.276Z,2.47
2019-04-26T00:51:38.966Z,2.57
2019-04-26T00:54:07.764Z,2.40
2019-04-26T00:56:36.347Z,2.70
2019-04-26T00:59:05.070Z,2.53
2019-04-26T01:01:34.957Z,2.80
2019-04-26T01:04:03.247Z,2.70
2019-04-26T01:06:33.137Z,2.60
2019-04-26T01:09:01.350Z,2.67
2019-04-26T01:11:29.561Z,2.30
2019-04-26T01:13:57.687Z,2.40
2019-04-26T01:16:26.399Z,2.43
2019-04-26T01:18:54.796Z,2.43
2019-04-26T01:21:24.744Z,2.80
2019-04-26T01:23:54.660Z,2.40
2019-04-26T01:26:30.388Z,2.03
2019-04-26T01:29:03.044Z,2.47
2019-04-26T01:31:33.007Z,2.37
2019-04-26T01:34:01.118Z,2.30
2019-04-26T01:36:29.308Z,2.20
2019-04-26T01:38:59.009Z,2.10
2019-04-26T01:41:32.906Z,2.37
2019-04-26T01:44:05.932Z,2.20
2019-04-26T01:46:37.247Z,2.30
2019-04-26T01:49:09.824Z,2.80
2019-04-26T01:51:39.423Z,2.30
2019-04-26T01:54:08.804Z,2.60
2019-04-26T01:56:37.225Z,2.27
2019-04-26T01:59:06.868Z,2.50
2019-04-26T02:01:48.888Z,2.50
2019-04-26T02:04:17.326Z,2.37
2019-04-26T02:06:45.539Z,2.97
2019-04-26T02:09:14.292Z,2.40
2019-04-26T02:11:42.583Z,2.27
2019-04-26T02:14:10.963Z,2.53
2019-04-26T02:16:39.144Z,2.43
2019-04-26T02:19:07.267Z,2.47
2019-04-26T02:21:37.184Z,2.70
2019-04-26T02:24:12.896Z,1.90
2019-04-26T02:26:42.852Z,2.50
2019-04-26T02:29:12.525Z,2.20
2019-04-26T02:31:42.468Z,2.10
2019-04-26T02:34:11.145Z,2.50
2019-04-26T02:36:56.449Z,1.67
2019-04-26T02:39:19.669Z,2.30
2019-04-26T02:41:49.569Z,2.60
2019-04-26T02:44:21.840Z,2.40
2019-04-26T02:46:54.226Z,2.23
2019-04-26T02:49:37.113Z,2.70
2019-04-26T02:52:13.852Z,2.63
2019-04-26T02:54:46.233Z,2.57
2019-04-26T02:57:15.953Z,2.20
2019-04-26T02:59:45.133Z,2.53
2019-04-26T03:02:14.809Z,2.50
2019-04-26T03:04:44.403Z,2.43
2019-04-26T03:07:14.137Z,2.50
2019-04-26T03:09:43.785Z,2.57
2019-04-26T03:12:13.529Z,2.30
2019-04-26T03:14:47.420Z,2.27
2019-04-26T03:17:38.138Z,2.10
2019-04-26T03:20:12.882Z,2.17
2019-04-26T03:22:42.736Z,2.43
2019-04-26T03:25:12.568Z,2.13
2019-04-26T03:27:51.479Z,2.50
2019-04-26T03:30:26.856Z,2.47
2019-04-26T03:32:59.312Z,2.40
2019-04-26T03:35:44.146Z,2.20
2019-04-26T03:38:09.313Z,2.10
2019-04-26T03:40:49.676Z,2.30
2019-04-26T03:43:36.836Z,2.10
2019-04-26T03:46:19.678Z,2.00
2019-04-26T03:49:07.729Z,1.90
2019-04-26T03:51:46.425Z,2.40
2019-04-26T03:54:19.568Z,2.20
2019-04-26T03:56:50.847Z,2.10
2019-04-26T03:59:30.985Z,2.03
2019-04-26T04:02:10.982Z,1.90
2019-04-26T04:04:47.804Z,2.17
2019-04-26T04:07:17.469Z,2.13
2019-04-26T04:09:47.172Z,1.97
2019-04-26T04:12:16.889Z,2.17
2019-04-26T04:14:52.318Z,1.87
2019-04-26T04:17:29.373Z,2.40
2019-04-26T04:20:17.143Z,2.30
2019-04-26T04:22:52.777Z,1.83
2019-04-26T04:25:39.441Z,1.70
2019-04-26T04:28:11.860Z,1.97
2019-04-26T04:30:45.875Z,1.90
2019-04-26T04:33:15.957Z,1.90
2019-04-26T04:35:46.092Z,2.00
2019-04-26T04:38:26.357Z,1.90
2019-04-26T04:41:09.751Z,1.83
2019-04-26T04:43:41.973Z,1.77
2019-04-26T04:46:22.191Z,1.90
2019-04-26T04:48:56.261Z,1.97
2019-04-26T04:51:31.604Z,1.63
2019-04-26T04:54:07.028Z,2.20
2019-04-26T04:56:43.594Z,1.77
2019-04-26T04:59:22.523Z,2.20
2019-04-26T05:02:28.947Z,1.80
2019-04-26T05:05:05.973Z,2.00
2019-04-26T05:07:41.350Z,1.80
2019-04-26T05:10:25.985Z,1.70
2019-04-26T05:12:55.627Z,2.30
2019-04-26T05:15:44.784Z,1.77
2019-04-26T05:18:31.156Z,2.00
2019-04-26T05:21:15.801Z,2.27
2019-04-26T05:24:02.354Z,2.37
2019-04-26T05:26:51.465Z,2.40
2019-04-26T05:29:31.988Z,2.57
2019-04-26T05:32:01.682Z,2.30
2019-04-26T05:34:39.236Z,2.00
2019-04-26T05:37:09.016Z,2.10
2019-04-26T05:39:42.580Z,2.27
2019-04-26T05:42:22.657Z,2.10
2019-04-26T05:45:11.620Z,1.90
2019-04-26T05:48:05.340Z,2.00
2019-04-26T05:50:43.779Z,1.97
2019-04-26T05:53:15.094Z,1.80
2019-04-26T05:56:02.485Z,2.00
2019-04-26T05:58:32.358Z,1.80
2019-04-26T06:01:18.602Z,2.17
2019-04-26T06:03:56.260Z,2.00
2019-04-26T06:06:30.624Z,2.17
2019-04-26T06:09:28.504Z,2.20
2019-04-26T06:12:08.819Z,2.20
2019-04-26T06:14:52.911Z,1.90
2019-04-26T06:17:35.985Z,1.90
2019-04-26T06:20:22.850Z,1.83
2019-04-26T06:22:53.531Z,1.83
2019-04-26T06:25:26.096Z,2.00
2019-04-26T06:28:02.654Z,1.97
2019-04-26T06:30:44.823Z,1.90
2019-04-26T06:33:07.270Z,1.90
2019-04-26T06:35:38.811Z,1.90
2019-04-26T06:38:13.012Z,1.90
2019-04-26T06:40:45.656Z,1.87
2019-04-26T06:43:26.526Z,2.00
2019-04-26T06:46:00.792Z,1.90
2019-04-26T06:48:32.077Z,2.03
2019-04-26T06:51:24.541Z,2.40
2019-04-26T06:54:00.735Z,2.07
2019-04-26T06:56:32.040Z,2.33
2019-04-26T06:59:05.817Z,1.93
2019-04-26T07:01:44.585Z,2.40
2019-04-26T07:04:14.228Z,2.70
2019-04-26T07:06:49.648Z,2.40
2019-04-26T07:09:17.835Z,2.37
2019-04-26T07:11:54.781Z,2.40
2019-04-26T07:14:36.631Z,2.27
2019-04-26T07:17:06.299Z,2.60
2019-04-26T07:20:11.604Z,2.50
2019-04-26T07:22:55.235Z,2.50
2019-04-26T07:25:43.384Z,2.50
2019-04-26T07:28:28.141Z,2.37
2019-04-26T07:31:10.183Z,2.37
2019-04-26T07:33:59.539Z,2.80
2019-04-26T07:36:34.969Z,2.60
2019-04-26T07:39:19.878Z,2.43
2019-04-26T07:42:05.236Z,2.10
2019-04-26T07:44:36.737Z,2.50
2019-04-26T07:47:06.385Z,2.37
2019-04-26T07:49:44.903Z,2.27
2019-04-26T07:52:14.635Z,2.40
2019-04-26T07:54:44.472Z,2.27
2019-04-26T07:57:39.820Z,2.20
2019-04-26T08:00:11.149Z,2.43
2019-04-26T08:02:58.599Z,2.57
2019-04-26T08:05:29.922Z,2.60
2019-04-26T08:07:59.868Z,2.37
2019-04-26T08:10:29.073Z,2.50
2019-04-26T08:13:06.033Z,2.30
2019-04-26T08:15:37.548Z,2.40
2019-04-26T08:18:08.868Z,2.63
2019-04-26T08:20:41.069Z,2.67
2019-04-26T08:23:35.102Z,2.40
2019-04-26T08:25:41.905Z,2.10
2019-04-26T08:28:12.082Z,2.80
2019-04-26T08:30:45.051Z,2.20
2019-04-26T08:33:16.227Z,2.27
2019-04-26T08:35:48.978Z,2.90
2019-04-26T08:38:22.417Z,2.50
2019-04-26T08:40:46.522Z,2.67
2019-04-26T08:43:35.147Z,3.20
2019-04-26T08:46:23.734Z,2.50
2019-04-26T08:48:54.293Z,2.47
2019-04-26T08:51:23.540Z,1.97
2019-04-26T08:53:53.222Z,2.20
2019-04-26T08:56:22.877Z,2.30
2019-04-26T08:58:52.553Z,2.40
2019-04-26T09:01:26.560Z,2.40
2019-04-26T09:04:04.146Z,2.77
2019-04-26T09:06:51.908Z,3.10
2019-04-26T09:09:23.207Z,4.73
2019-04-26T09:11:59.569Z,3.10
2019-04-26T09:14:23.676Z,3.70
2019-04-26T09:16:52.062Z,2.63
2019-04-26T09:19:20.185Z,2.83
2019-04-26T09:21:51.786Z,2.90
2019-04-26T09:24:36.472Z,2.07
2019-04-26T09:27:12.028Z,2.47
2019-04-26T09:29:44.832Z,2.90
2019-04-26T09:32:17.820Z,2.63
2019-04-26T09:34:46.797Z,3.27
2019-04-26T09:37:14.932Z,3.60
2019-04-26T09:39:43.460Z,2.80
2019-04-26T09:42:28.586Z,2.57
2019-04-26T09:45:16.928Z,2.37
2019-04-26T09:47:46.764Z,3.10
2019-04-26T09:50:28.460Z,2.13
2019-04-26T09:52:58.399Z,2.00
2019-04-26T09:55:35.160Z,2.13
2019-04-26T09:57:57.128Z,2.70
2019-04-26T10:00:29.937Z,4.10
2019-04-26T10:02:58.139Z,4.87
2019-04-26T10:05:26.312Z,3.13
2019-04-26T10:07:54.684Z,2.27
2019-04-26T10:10:24.529Z,3.60
2019-04-26T10:13:03.112Z,6.00
2019-04-26T10:15:39.175Z,3.00
2019-04-26T10:18:08.226Z,4.80
2019-04-26T10:20:39.506Z,3.73
2019-04-26T10:23:07.704Z,3.30
2019-04-26T10:25:35.831Z,5.90
2019-04-26T10:28:04.271Z,6.43
2019-04-26T10:30:32.376Z,3.20
2019-04-26T10:33:02.168Z,4.70
2019-04-26T10:35:30.439Z,3.50
2019-04-26T10:37:58.655Z,3.40
2019-04-26T10:40:35.469Z,2.20
2019-04-26T10:42:56.625Z,2.07
2019-04-26T10:45:25.661Z,1.70
2019-04-26T10:47:53.768Z,1.60
2019-04-26T10:50:21.973Z,2.03
2019-04-26T10:52:55.755Z,1.57
2019-04-26T10:55:46.377Z,1.90
2019-04-26T10:58:15.876Z,2.07
2019-04-26T11:00:52.824Z,2.00
2019-04-26T11:03:18.905Z,1.70
2019-04-26T11:05:49.290Z,1.70
2019-04-26T11:08:16.999Z,1.60
2019-04-26T11:10:48.766Z,1.53
2019-04-26T11:13:15.054Z,1.70
2019-04-26T11:15:43.258Z,1.80
2019-04-26T11:18:11.387Z,1.80
2019-04-26T11:20:41.405Z,1.77
2019-04-26T11:23:11.762Z,1.83
2019-04-26T11:25:39.277Z,1.70
2019-04-26T11:28:07.421Z,1.73
2019-04-26T11:30:35.832Z,1.50
2019-04-26T11:33:07.279Z,1.60
2019-04-26T11:35:34.858Z,1.80
2019-04-26T11:38:03.139Z,1.57
2019-04-26T11:40:31.316Z,1.93
2019-04-26T11:42:59.445Z,1.73
2019-04-26T11:45:27.547Z,1.90
2019-04-26T11:47:56.613Z,1.97
2019-04-26T11:50:24.880Z,1.70
2019-04-26T11:52:53.079Z,1.70
2019-04-26T11:55:21.280Z,1.70
2019-04-26T11:57:49.419Z,1.47
2019-04-26T12:00:28.668Z,1.57
2019-04-26T12:02:58.718Z,1.53
2019-04-26T12:05:40.600Z,1.50
2019-04-26T12:08:13.335Z,1.50
2019-04-26T12:10:44.454Z,1.47
2019-04-26T12:13:11.317Z,1.57
2019-04-26T12:15:43.819Z,1.30
2019-04-26T12:18:10.909Z,1.80
2019-04-26T12:20:39.319Z,2.07
2019-04-26T12:23:07.511Z,1.70
2019-04-26T12:25:38.717Z,1.90
2019-04-26T12:28:07.160Z,1.67
2019-04-26T12:30:35.517Z,1.83
2019-04-26T12:33:03.824Z,1.70
2019-04-26T12:35:31.924Z,1.53
2019-04-26T12:38:00.053Z,1.70
2019-04-26T12:40:28.325Z,1.50
2019-04-26T12:42:56.546Z,1.90
2019-04-26T12:45:42.888Z,1.70
2019-04-26T12:48:15.776Z,1.50
2019-04-26T12:50:42.564Z,1.70
2019-04-26T12:53:10.716Z,2.20
2019-04-26T12:55:38.896Z,2.13
2019-04-26T12:58:07.008Z,1.90
2019-04-26T13:00:37.554Z,1.87
2019-04-26T13:03:06.015Z,2.10
2019-04-26T13:05:34.135Z,1.77
2019-04-26T13:08:02.268Z,1.70
2019-04-26T13:10:48.165Z,1.77
2019-04-26T13:13:21.051Z,2.00
2019-04-26T13:16:06.320Z,1.87
2019-04-26T13:18:34.429Z,2.10
2019-04-26T13:21:03.163Z,1.90
2019-04-26T13:23:32.349Z,1.80
2019-04-26T13:26:01.578Z,1.90
2019-04-26T13:28:29.954Z,1.73
2019-04-26T13:31:01.824Z,1.67
2019-04-26T13:33:29.182Z,1.27
2019-04-26T13:36:03.481Z,1.40
2019-04-26T13:38:30.141Z,1.10
2019-04-26T13:40:59.740Z,1.00
2019-04-26T13:43:28.705Z,1.30
2019-04-26T13:46:04.388Z,1.13
2019-04-26T13:48:39.038Z,0.90
2019-04-26T13:51:08.422Z,1.43
2019-04-26T13:53:36.525Z,1.10
2019-04-26T13:56:04.700Z,1.00
2019-04-26T13:58:32.833Z,1.07
2019-04-26T14:01:01.581Z,0.70
2019-04-26T14:03:31.645Z,1.40
2019-04-26T14:05:59.629Z,0.90
2019-04-26T14:08:27.752Z,0.87
2019-04-26T14:10:55.861Z,0.80
2019-04-26T14:13:24.923Z,0.70
2019-04-26T14:15:53.828Z,0.80
2019-04-26T14:18:21.991Z,0.87
2019-04-26T14:20:50.173Z,0.80
2019-04-26T14:23:36.668Z,1.17
2019-04-26T14:26:22.751Z,0.90
2019-04-26T14:28:54.408Z,0.73
2019-04-26T14:31:20.924Z,0.90
2019-04-26T14:33:49.180Z,1.07
2019-04-26T14:36:18.387Z,1.00
2019-04-26T14:38:46.879Z,0.53
2019-04-26T14:41:21.978Z,0.90
2019-04-26T14:43:45.022Z,0.97
2019-04-26T14:46:14.729Z,0.80
2019-04-26T14:48:44.662Z,0.80
2019-04-26T14:51:16.998Z,0.73
2019-04-26T14:53:42.870Z,0.90
2019-04-26T14:56:11.336Z,0.80
2019-04-26T14:58:39.517Z,0.90
2019-04-26T15:01:09.792Z,1.30
2019-04-26T15:03:39.552Z,0.90
2019-04-26T15:06:09.340Z,0.87
2019-04-26T15:08:40.480Z,0.77
2019-04-26T15:11:07.315Z,0.90
2019-04-26T15:13:40.317Z,1.00
2019-04-26T15:16:10.214Z,0.90
2019-04-26T15:18:37.197Z,0.87
2019-04-26T15:21:05.659Z,1.00
2019-04-26T15:23:33.764Z,0.83
2019-04-26T15:26:03.181Z,1.10
2019-04-26T15:28:32.826Z,0.90
2019-04-26T15:31:02.325Z,1.10
2019-04-26T15:33:32.390Z,1.10
2019-04-26T15:36:02.113Z,0.93
2019-04-26T15:38:35.227Z,1.07
2019-04-26T15:41:04.490Z,1.10
2019-04-26T15:43:39.428Z,1.10
2019-04-26T15:46:13.485Z,1.00
2019-04-26T15:48:43.353Z,1.00
2019-04-26T15:51:12.779Z,0.87
2019-04-26T15:53:44.846Z,1.30
2019-04-26T15:56:16.202Z,1.20
2019-04-26T15:58:47.194Z,1.23
2019-04-26T16:01:10.878Z,0.90
2019-04-26T16:03:40.898Z,1.20
2019-04-26T16:06:09.737Z,0.90
2019-04-26T16:08:42.501Z,1.10
2019-04-26T16:11:11.348Z,0.90
2019-04-26T16:13:37.556Z,1.17
2019-04-26T16:16:05.709Z,1.23
2019-04-26T16:21:44.074Z,1.10
2019-04-26T16:24:12.930Z,1.20
2019-04-26T16:26:44.543Z,1.30
2019-04-26T16:29:18.113Z,1.07
2019-04-26T16:31:57.636Z,1.07
2019-04-26T16:34:32.314Z,1.00
2019-04-26T16:37:00.645Z,1.73
2019-04-26T16:39:38.307Z,1.30
2019-04-26T16:41:59.323Z,1.00
2019-04-26T16:44:31.315Z,1.10
2019-04-26T16:47:01.720Z,1.00
2019-04-26T16:49:28.255Z,1.20
2019-04-26T16:52:02.010Z,0.87
2019-04-26T16:54:26.824Z,1.00
2019-04-26T16:56:59.087Z,0.80
2019-04-26T16:59:26.793Z,1.00
2019-04-26T17:01:54.783Z,1.00
2019-04-26T17:04:28.682Z,1.13
2019-04-26T17:06:53.052Z,1.07
2019-04-26T17:09:23.590Z,1.03
2019-04-26T17:11:52.342Z,1.00
2019-04-26T17:14:22.443Z,1.20
2019-04-26T17:16:50.445Z,1.60
2019-04-26T17:19:19.973Z,4.43
2019-04-26T17:21:49.923Z,2.00
2019-04-26T17:24:19.764Z,1.30
2019-04-26T17:26:49.516Z,1.10
2019-04-26T17:29:17.657Z,1.10
2019-04-26T17:31:45.760Z,1.20
2019-04-26T17:34:13.899Z,1.03
2019-04-26T17:36:42.014Z,1.20
2019-04-26T17:39:16.903Z,0.90
2019-04-26T17:41:45.431Z,1.10
2019-04-26T17:44:13.234Z,1.20
2019-04-26T17:46:40.805Z,2.00
2019-04-26T17:49:10.983Z,1.27
2019-04-26T17:51:43.646Z,0.90
2019-04-26T17:54:32.305Z,1.97
2019-04-26T17:56:40.227Z,1.37
2019-04-26T17:59:31.339Z,1.10
2019-04-26T18:01:51.849Z,1.20
2019-04-26T18:04:15.436Z,1.30
2019-04-26T18:06:45.428Z,1.10
2019-04-26T18:09:38.188Z,1.10
2019-04-26T18:11:43.911Z,1.13
2019-04-26T18:17:24.951Z,1.30
2019-04-26T18:19:54.881Z,1.57
2019-04-26T18:22:28.458Z,1.07
2019-04-26T18:24:57.433Z,1.57
2019-04-26T18:27:25.553Z,1.30
2019-04-26T18:29:53.677Z,1.40
2019-04-26T18:32:21.941Z,1.10
2019-04-26T18:34:50.057Z,1.20
2019-04-26T18:37:18.184Z,1.17
2019-04-26T18:39:46.303Z,0.90
2019-04-26T18:42:14.609Z,0.93
2019-04-26T18:44:47.575Z,0.80
2019-04-26T18:47:27.972Z,0.57
2019-04-26T18:49:58.271Z,0.50
2019-04-26T18:52:26.276Z,0.83
2019-04-26T18:54:54.929Z,0.90
2019-04-26T18:57:23.811Z,0.53
2019-04-26T18:59:52.921Z,0.77
2019-04-26T19:02:23.543Z,0.70
2019-04-26T19:04:53.379Z,0.87
2019-04-26T19:07:32.502Z,0.70
2019-04-26T19:10:01.961Z,0.90
2019-04-26T19:12:27.234Z,1.00
2019-04-26T19:15:03.131Z,1.00
2019-04-26T19:17:37.528Z,1.10
2019-04-26T19:20:24.648Z,1.60
2019-04-26T19:22:54.472Z,1.40
2019-04-26T19:25:23.891Z,1.40
2019-04-26T19:27:54.099Z,1.27
2019-04-26T19:30:22.632Z,1.07
2019-04-26T19:32:51.980Z,1.40
2019-04-26T19:35:21.926Z,1.30
2019-04-26T19:37:51.807Z,1.47
2019-04-26T19:40:20.117Z,1.50
2019-04-26T19:42:51.322Z,2.07
2019-04-26T19:45:19.847Z,1.40
2019-04-26T19:47:52.854Z,1.27
2019-04-26T19:50:28.716Z,0.90
2019-04-26T19:53:01.784Z,0.77
2019-04-26T19:55:34.803Z,0.70
2019-04-26T19:58:04.579Z,0.70
2019-04-26T20:00:32.909Z,0.80
2019-04-26T20:03:01.647Z,0.60
2019-04-26T20:05:31.899Z,0.70
2019-04-26T20:08:04.575Z,0.87
2019-04-26T20:10:29.697Z,0.70
2019-04-26T20:12:57.805Z,1.27
2019-04-26T20:15:28.714Z,1.10
2019-04-26T20:17:59.596Z,1.20
2019-04-26T20:20:27.909Z,1.07
2019-04-26T20:22:55.476Z,0.90
2019-04-26T20:25:26.453Z,1.03
2019-04-26T20:27:59.626Z,1.47
2019-04-26T20:30:36.712Z,1.00
2019-04-26T20:33:04.816Z,0.87
2019-04-26T20:35:32.953Z,0.60
2019-04-26T20:38:04.538Z,0.93
2019-04-26T20:40:31.181Z,1.00
2019-04-26T20:43:05.327Z,1.07
2019-04-26T20:45:39.673Z,0.90
2019-04-26T20:47:59.044Z,0.90
2019-04-26T20:50:28.654Z,0.97
2019-04-26T20:53:00.678Z,0.87
2019-04-26T20:55:30.494Z,0.90
2019-04-26T20:57:59.706Z,0.87
2019-04-26T21:00:26.980Z,0.80
2019-04-26T21:03:01.243Z,1.00
2019-04-26T21:05:24.953Z,0.90
2019-04-26T21:07:53.071Z,1.03
2019-04-26T21:10:25.423Z,0.80
2019-04-26T21:12:54.592Z,0.90
2019-04-26T21:15:24.053Z,0.80
2019-04-26T21:17:51.895Z,1.00
2019-04-26T21:20:21.588Z,1.20
2019-04-26T21:22:49.992Z,1.10
2019-04-26T21:25:22.845Z,1.20
2019-04-26T21:28:02.518Z,1.40
2019-04-26T21:30:33.724Z,1.00
2019-04-26T21:33:04.544Z,1.73
2019-04-26T21:35:37.096Z,1.10
2019-04-26T21:38:09.797Z,1.20
2019-04-26T21:40:45.341Z,1.20
2019-04-26T21:43:13.538Z,1.07
2019-04-26T21:45:41.644Z,1.37
2019-04-26T21:48:09.890Z,1.10
2019-04-26T21:50:39.022Z,1.20
2019-04-26T21:53:07.404Z,0.93
2019-04-26T21:55:38.774Z,1.10
2019-04-26T21:58:05.446Z,1.07
2019-04-26T22:00:50.370Z,1.10
2019-04-26T22:03:18.505Z,1.00
2019-04-26T22:05:49.744Z,1.27
2019-04-26T22:08:24.406Z,1.03
2019-04-26T22:10:48.232Z,1.30
2019-04-26T22:13:18.013Z,1.30
2019-04-26T22:15:50.792Z,1.30
2019-04-26T22:18:21.707Z,1.13
2019-04-26T22:20:54.000Z,1.23
2019-04-26T22:23:35.404Z,1.20
2019-04-26T22:26:05.024Z,1.53
2019-04-26T22:28:36.088Z,1.40
2019-04-26T22:31:08.068Z,1.20
2019-04-26T22:33:34.244Z,1.10
2019-04-26T22:36:03.914Z,1.30
2019-04-26T22:38:33.967Z,1.60
2019-04-26T22:41:03.099Z,1.40
2019-04-26T22:43:34.055Z,1.47
2019-04-26T22:46:18.715Z,1.50
2019-04-26T22:48:47.648Z,1.80
2019-04-26T22:51:15.769Z,1.70
2019-04-26T22:53:44.046Z,1.80
2019-04-26T22:56:13.379Z,1.73
2019-04-26T22:58:41.658Z,2.03
2019-04-26T23:01:09.765Z,1.80
2019-04-26T23:03:41.235Z,2.17
2019-04-26T23:06:11.571Z,1.93
2019-04-26T23:08:38.341Z,1.97
2019-04-26T23:11:09.196Z,2.20
2019-04-26T23:13:42.371Z,1.83
2019-04-26T23:16:23.347Z,1.90
2019-04-26T23:19:03.663Z,1.97
2019-04-26T23:21:36.220Z,1.77
2019-04-26T23:24:04.433Z,1.83
2019-04-26T23:26:33.474Z,1.67
2019-04-26T23:29:01.652Z,1.87
2019-04-26T23:31:29.837Z,1.60
2019-04-26T23:33:57.971Z,1.90
2019-04-26T23:36:26.086Z,1.50
2019-04-26T23:38:54.226Z,1.67
2019-04-26T23:41:23.639Z,1.80
2019-04-26T23:43:56.496Z,2.00
2019-04-26T23:46:22.784Z,1.80
2019-04-26T23:48:51.627Z,1.73
2019-04-26T23:51:19.741Z,1.70
2019-04-26T23:53:50.437Z,1.80
2019-04-26T23:56:23.523Z,1.73
2019-04-26T23:58:50.658Z,1.80
